Aérodrome :
LOGIN :

S'inscrire | Disclaimer

   EN    FR    IT 

 










Légende :    VFR   VFR Marginal   IFR   IFR Intensif   IFR Très Intensif
Visi : 
Plafond : 
>= 8 km
>= 3000ft
5 à 8 km
1000 à 3000 ft
1500m à 5 km
500 à 1000 ft
800 à 1500m
200 à 500 ft
< 800m
< 200 ft
Symboles :   Orages  Brouillard  Fortes neiges  Fortes précipitations  Vent > 20 kt
SIGMETs :   Divers  Orages  Givrage  Turbulence  Onde Orograph.  Cendres Volcan.






- Altitude de l'aérodrome : 2595 ft
- Code IATA : SLM


LESA - Salamanca Matacan

DERNIER METAR :
  • 101930Z 26006KT 9999 FEW090TCU 24/12 Q1012

METARs EXPIRÉS :
  • 101900Z 26006KT 9999 FEW090TCU 27/09 Q1012
  • 101830Z 25007KT 220V290 9999 FEW090TCU 31/07 Q1012
  • 101800Z 23010KT 200V260 9999 FEW090TCU 32/05 Q1012
  • 101730Z 23009KT 190V250 CAVOK 33/06 Q1012
  • 101700Z 22011KT 160V250 CAVOK 33/04 Q1012
  • 101630Z 23009KT 190V270 CAVOK 34/06 Q1012

TAF TAF LESA
Valide du 10 à 15h jusqu'au 11 à 15h UTC


101400Z 1015/1115 19008KT CAVOK TX35/1016Z TN12/1106Z
PROB30
TEMPO 1015/1021 16010KT FEW040TCU
BECMG 1023/1101 VRB05KT
TEMPO 1110/1115 FEW040TCU
PROB40
TEMPO 1111/1115 VRB15G30KT 3000 TS SHRA SCT040CB
PROB30
TEMPO 1113/1115 VRB15G40KT 1200 TSGR SCT040CB



MET'MAP, la Météo Aéronautique d'un coup d'oeil ! - Copyright ORBIFLY Décembre 2007 - Disclaimer

ORBIFLY MET'MAP TEAM :

Programmation & Développement : Alexandra Zaïnal
Sur une idée originale de : Baudouin d'Aumeries
Assistance à la programmation : Marc-Olivier Méhu
Soutien technique & logistique : Manuel Goepfert

Contact : metmap@orbifly.com




SOURCES & CREDITS :

   NOAA